sensor_id;sensor_type;location;lat;lon;timestamp;temperature;humidity
64620;DHT22;51029;51.058;13.826;2022-10-31T00:01:36;10.80;99.90
64620;DHT22;51029;51.058;13.826;2022-10-31T00:04:02;10.90;99.90
64620;DHT22;51029;51.058;13.826;2022-10-31T00:06:28;10.80;99.90
64620;DHT22;51029;51.058;13.826;2022-10-31T00:08:56;10.80;99.90
64620;DHT22;51029;51.058;13.826;2022-10-31T00:11:22;10.80;99.90
64620;DHT22;51029;51.058;13.826;2022-10-31T00:13:48;10.80;99.90
64620;DHT22;51029;51.058;13.826;2022-10-31T00:16:21;10.80;99.90
64620;DHT22;51029;51.058;13.826;2022-10-31T00:18:49;10.80;99.90
64620;DHT22;51029;51.058;13.826;2022-10-31T00:21:15;10.80;99.90
64620;DHT22;51029;51.058;13.826;2022-10-31T00:23:40;10.80;99.90
64620;DHT22;51029;51.058;13.826;2022-10-31T00:26:06;10.80;99.90
64620;DHT22;51029;51.058;13.826;2022-10-31T00:28:32;10.80;99.90
64620;DHT22;51029;51.058;13.826;2022-10-31T00:30:59;10.70;99.90
64620;DHT22;51029;51.058;13.826;2022-10-31T00:33:26;10.70;99.90
64620;DHT22;51029;51.058;13.826;2022-10-31T00:35:51;10.70;99.90
64620;DHT22;51029;51.058;13.826;2022-10-31T00:38:17;10.70;99.90
64620;DHT22;51029;51.058;13.826;2022-10-31T00:40:42;10.60;99.90
64620;DHT22;51029;51.058;13.826;2022-10-31T00:43:08;10.60;99.90
64620;DHT22;51029;51.058;13.826;2022-10-31T00:45:34;10.60;99.90
64620;DHT22;51029;51.058;13.826;2022-10-31T00:47:59;10.50;99.90
64620;DHT22;51029;51.058;13.826;2022-10-31T00:50:25;10.50;99.90
64620;DHT22;51029;51.058;13.826;2022-10-31T00:52:50;10.50;99.90
64620;DHT22;51029;51.058;13.826;2022-10-31T00:55:16;10.50;99.90
64620;DHT22;51029;51.058;13.826;2022-10-31T00:57:41;10.40;99.90
64620;DHT22;51029;51.058;13.826;2022-10-31T01:00:07;10.40;99.90
64620;DHT22;51029;51.058;13.826;2022-10-31T01:02:33;10.40;99.90
64620;DHT22;51029;51.058;13.826;2022-10-31T01:04:59;10.30;99.90
64620;DHT22;51029;51.058;13.826;2022-10-31T01:07:24;10.30;99.90
64620;DHT22;51029;51.058;13.826;2022-10-31T01:09:50;10.30;99.90
64620;DHT22;51029;51.058;13.826;2022-10-31T01:12:15;10.30;99.90
64620;DHT22;51029;51.058;13.826;2022-10-31T01:14:44;10.30;99.90
64620;DHT22;51029;51.058;13.826;2022-10-31T01:17:11;10.20;99.90
64620;DHT22;51029;51.058;13.826;2022-10-31T01:19:37;10.20;99.90
64620;DHT22;51029;51.058;13.826;2022-10-31T01:22:02;10.10;99.90
64620;DHT22;51029;51.058;13.826;2022-10-31T01:24:28;10.10;99.90
64620;DHT22;51029;51.058;13.826;2022-10-31T01:26:54;10.10;99.90
64620;DHT22;51029;51.058;13.826;2022-10-31T01:29:19;10.10;99.90
64620;DHT22;51029;51.058;13.826;2022-10-31T01:31:45;10.10;99.90
64620;DHT22;51029;51.058;13.826;2022-10-31T01:34:15;10.10;99.90
64620;DHT22;51029;51.058;13.826;2022-10-31T01:36:41;10.10;99.90
64620;DHT22;51029;51.058;13.826;2022-10-31T01:39:11;10.10;99.90
64620;DHT22;51029;51.058;13.826;2022-10-31T01:41:43;10.10;99.90
64620;DHT22;51029;51.058;13.826;2022-10-31T01:49:20;10.10;99.90
64620;DHT22;51029;51.058;13.826;2022-10-31T01:52:05;10.00;99.90
64620;DHT22;51029;51.058;13.826;2022-10-31T01:54:44;10.00;99.90
64620;DHT22;51029;51.058;13.826;2022-10-31T01:57:13;10.10;99.90
64620;DHT22;51029;51.058;13.826;2022-10-31T01:59:43;10.00;99.90
64620;DHT22;51029;51.058;13.826;2022-10-31T02:02:12;10.00;99.90
64620;DHT22;51029;51.058;13.826;2022-10-31T02:04:38;10.00;99.90
64620;DHT22;51029;51.058;13.826;2022-10-31T02:07:09;10.00;99.90
64620;DHT22;51029;51.058;13.826;2022-10-31T02:09:36;10.00;99.90
64620;DHT22;51029;51.058;13.826;2022-10-31T02:12:03;10.00;99.90
64620;DHT22;51029;51.058;13.826;2022-10-31T02:14:30;10.00;99.90
64620;DHT22;51029;51.058;13.826;2022-10-31T02:16:56;10.00;99.90
64620;DHT22;51029;51.058;13.826;2022-10-31T02:22:09;10.00;99.90
64620;DHT22;51029;51.058;13.826;2022-10-31T02:24:44;9.90;99.90
64620;DHT22;51029;51.058;13.826;2022-10-31T02:27:26;9.90;99.90
64620;DHT22;51029;51.058;13.826;2022-10-31T02:32:52;9.90;99.90
64620;DHT22;51029;51.058;13.826;2022-10-31T02:35:55;9.80;99.90
64620;DHT22;51029;51.058;13.826;2022-10-31T02:38:24;9.80;99.90
64620;DHT22;51029;51.058;13.826;2022-10-31T02:41:10;9.80;99.90
64620;DHT22;51029;51.058;13.826;2022-10-31T02:47:03;9.80;99.90
64620;DHT22;51029;51.058;13.826;2022-10-31T02:52:31;9.60;99.90
64620;DHT22;51029;51.058;13.826;2022-10-31T02:54:56;9.60;99.90
64620;DHT22;51029;51.058;13.826;2022-10-31T02:57:31;9.60;99.90
64620;DHT22;51029;51.058;13.826;2022-10-31T03:00:08;9.60;99.90
64620;DHT22;51029;51.058;13.826;2022-10-31T03:05:19;9.60;99.90
64620;DHT22;51029;51.058;13.826;2022-10-31T03:07:59;9.60;99.90
64620;DHT22;51029;51.058;13.826;2022-10-31T03:13:45;9.60;99.90
64620;DHT22;51029;51.058;13.826;2022-10-31T03:16:15;9.60;99.90
64620;DHT22;51029;51.058;13.826;2022-10-31T03:18:52;9.60;99.90
64620;DHT22;51029;51.058;13.826;2022-10-31T03:21:42;9.60;99.90
64620;DHT22;51029;51.058;13.826;2022-10-31T03:24:06;9.50;99.90
64620;DHT22;51029;51.058;13.826;2022-10-31T03:26:36;9.50;99.90
64620;DHT22;51029;51.058;13.826;2022-10-31T03:29:05;9.50;99.90
64620;DHT22;51029;51.058;13.826;2022-10-31T03:31:55;9.50;99.90
64620;DHT22;51029;51.058;13.826;2022-10-31T03:34:23;9.50;99.90
64620;DHT22;51029;51.058;13.826;2022-10-31T03:36:51;9.50;99.90
64620;DHT22;51029;51.058;13.826;2022-10-31T03:39:20;9.50;99.90
64620;DHT22;51029;51.058;13.826;2022-10-31T03:41:53;9.50;99.90
64620;DHT22;51029;51.058;13.826;2022-10-31T03:44:21;9.50;99.90
64620;DHT22;51029;51.058;13.826;2022-10-31T03:46:47;9.40;99.90
64620;DHT22;51029;51.058;13.826;2022-10-31T03:49:14;9.40;99.90
64620;DHT22;51029;51.058;13.826;2022-10-31T03:52:02;9.50;99.90
64620;DHT22;51029;51.058;13.826;2022-10-31T03:57:27;9.40;99.90
64620;DHT22;51029;51.058;13.826;2022-10-31T04:00:05;9.40;99.90
64620;DHT22;51029;51.058;13.826;2022-10-31T04:02:33;9.40;99.90
64620;DHT22;51029;51.058;13.826;2022-10-31T04:05:00;9.40;99.90
64620;DHT22;51029;51.058;13.826;2022-10-31T04:07:30;9.40;99.90
64620;DHT22;51029;51.058;13.826;2022-10-31T04:09:57;9.40;99.90
64620;DHT22;51029;51.058;13.826;2022-10-31T04:12:25;9.50;99.90
64620;DHT22;51029;51.058;13.826;2022-10-31T04:14:52;9.40;99.90
64620;DHT22;51029;51.058;13.826;2022-10-31T04:17:21;9.40;99.90
64620;DHT22;51029;51.058;13.826;2022-10-31T04:19:48;9.40;99.90
64620;DHT22;51029;51.058;13.826;2022-10-31T04:22:14;9.40;99.90
64620;DHT22;51029;51.058;13.826;2022-10-31T04:24:40;9.40;99.90
64620;DHT22;51029;51.058;13.826;2022-10-31T04:27:06;9.40;99.90
64620;DHT22;51029;51.058;13.826;2022-10-31T04:29:32;9.40;99.90
64620;DHT22;51029;51.058;13.826;2022-10-31T04:31:57;9.40;99.90
64620;DHT22;51029;51.058;13.826;2022-10-31T04:34:23;9.40;99.90
64620;DHT22;51029;51.058;13.826;2022-10-31T04:36:48;9.40;99.90
64620;DHT22;51029;51.058;13.826;2022-10-31T04:39:14;9.30;99.90
64620;DHT22;51029;51.058;13.826;2022-10-31T04:41:39;9.30;99.90
64620;DHT22;51029;51.058;13.826;2022-10-31T04:44:06;9.30;99.90
64620;DHT22;51029;51.058;13.826;2022-10-31T04:46:31;9.30;99.90
64620;DHT22;51029;51.058;13.826;2022-10-31T04:48:58;9.20;99.90
64620;DHT22;51029;51.058;13.826;2022-10-31T04:51:23;9.20;99.90
64620;DHT22;51029;51.058;13.826;2022-10-31T04:53:49;9.20;99.90
64620;DHT22;51029;51.058;13.826;2022-10-31T04:56:14;9.20;99.90
64620;DHT22;51029;51.058;13.826;2022-10-31T04:58:40;9.10;99.90
64620;DHT22;51029;51.058;13.826;2022-10-31T05:01:06;9.10;99.90
64620;DHT22;51029;51.058;13.826;2022-10-31T05:03:31;9.10;99.90
64620;DHT22;51029;51.058;13.826;2022-10-31T05:05:57;9.10;99.90
64620;DHT22;51029;51.058;13.826;2022-10-31T05:08:22;9.00;99.90
64620;DHT22;51029;51.058;13.826;2022-10-31T05:10:48;9.00;99.90
64620;DHT22;51029;51.058;13.826;2022-10-31T05:13:13;9.00;99.90
64620;DHT22;51029;51.058;13.826;2022-10-31T05:15:40;9.00;99.90
64620;DHT22;51029;51.058;13.826;2022-10-31T05:18:06;8.90;99.90
64620;DHT22;51029;51.058;13.826;2022-10-31T05:20:32;9.00;99.90
64620;DHT22;51029;51.058;13.826;2022-10-31T05:22:58;9.00;99.90
64620;DHT22;51029;51.058;13.826;2022-10-31T05:25:26;8.90;99.90
64620;DHT22;51029;51.058;13.826;2022-10-31T05:27:52;8.90;99.90
64620;DHT22;51029;51.058;13.826;2022-10-31T05:30:20;8.90;99.90
64620;DHT22;51029;51.058;13.826;2022-10-31T05:32:48;8.90;99.90
64620;DHT22;51029;51.058;13.826;2022-10-31T05:35:17;8.90;99.90
64620;DHT22;51029;51.058;13.826;2022-10-31T05:37:42;8.90;99.90
64620;DHT22;51029;51.058;13.826;2022-10-31T05:40:10;8.80;99.90
64620;DHT22;51029;51.058;13.826;2022-10-31T05:42:38;8.80;99.90
64620;DHT22;51029;51.058;13.826;2022-10-31T05:45:04;8.90;99.90
64620;DHT22;51029;51.058;13.826;2022-10-31T05:47:30;8.80;99.90
64620;DHT22;51029;51.058;13.826;2022-10-31T05:49:56;8.80;99.90
64620;DHT22;51029;51.058;13.826;2022-10-31T05:52:21;8.80;99.90
64620;DHT22;51029;51.058;13.826;2022-10-31T05:54:47;8.80;99.90
64620;DHT22;51029;51.058;13.826;2022-10-31T05:57:12;8.80;99.90
64620;DHT22;51029;51.058;13.826;2022-10-31T05:59:38;8.80;99.90
64620;DHT22;51029;51.058;13.826;2022-10-31T06:02:03;8.80;99.90
64620;DHT22;51029;51.058;13.826;2022-10-31T06:04:29;8.80;99.90
64620;DHT22;51029;51.058;13.826;2022-10-31T06:06:55;8.80;99.90
64620;DHT22;51029;51.058;13.826;2022-10-31T06:09:21;8.80;99.90
64620;DHT22;51029;51.058;13.826;2022-10-31T06:11:47;8.80;99.90
64620;DHT22;51029;51.058;13.826;2022-10-31T06:14:12;8.80;99.90
64620;DHT22;51029;51.058;13.826;2022-10-31T06:16:38;8.80;99.90
64620;DHT22;51029;51.058;13.826;2022-10-31T06:19:03;8.80;99.90
64620;DHT22;51029;51.058;13.826;2022-10-31T06:21:29;8.80;99.90
64620;DHT22;51029;51.058;13.826;2022-10-31T06:23:54;8.90;99.90
64620;DHT22;51029;51.058;13.826;2022-10-31T06:26:20;8.90;99.90
64620;DHT22;51029;51.058;13.826;2022-10-31T06:28:45;8.90;99.90
64620;DHT22;51029;51.058;13.826;2022-10-31T06:31:11;9.00;99.90
64620;DHT22;51029;51.058;13.826;2022-10-31T06:33:36;9.00;99.90
64620;DHT22;51029;51.058;13.826;2022-10-31T06:36:02;9.00;99.90
64620;DHT22;51029;51.058;13.826;2022-10-31T06:38:28;9.10;99.90
64620;DHT22;51029;51.058;13.826;2022-10-31T06:40:54;9.10;99.90
64620;DHT22;51029;51.058;13.826;2022-10-31T06:43:20;9.10;99.90
64620;DHT22;51029;51.058;13.826;2022-10-31T06:45:46;9.10;99.90
64620;DHT22;51029;51.058;13.826;2022-10-31T06:48:11;9.20;99.90
64620;DHT22;51029;51.058;13.826;2022-10-31T06:50:37;9.20;99.90
64620;DHT22;51029;51.058;13.826;2022-10-31T06:53:03;9.20;99.90
64620;DHT22;51029;51.058;13.826;2022-10-31T06:55:28;9.20;99.90
64620;DHT22;51029;51.058;13.826;2022-10-31T06:57:56;9.30;99.90
64620;DHT22;51029;51.058;13.826;2022-10-31T07:00:23;9.30;99.90
64620;DHT22;51029;51.058;13.826;2022-10-31T07:03:02;9.40;99.90
64620;DHT22;51029;51.058;13.826;2022-10-31T07:05:29;9.40;99.90
64620;DHT22;51029;51.058;13.826;2022-10-31T07:07:56;9.40;99.90
64620;DHT22;51029;51.058;13.826;2022-10-31T07:10:23;9.40;99.90
64620;DHT22;51029;51.058;13.826;2022-10-31T07:12:51;9.50;99.90
64620;DHT22;51029;51.058;13.826;2022-10-31T07:15:18;9.50;99.90
64620;DHT22;51029;51.058;13.826;2022-10-31T07:17:44;9.50;99.90
64620;DHT22;51029;51.058;13.826;2022-10-31T07:20:09;9.50;99.90
64620;DHT22;51029;51.058;13.826;2022-10-31T07:22:36;9.60;99.90
64620;DHT22;51029;51.058;13.826;2022-10-31T07:25:02;9.70;99.90
64620;DHT22;51029;51.058;13.826;2022-10-31T07:27:28;9.60;99.90
64620;DHT22;51029;51.058;13.826;2022-10-31T07:29:53;9.70;99.90
64620;DHT22;51029;51.058;13.826;2022-10-31T07:32:19;9.70;99.90
64620;DHT22;51029;51.058;13.826;2022-10-31T07:34:45;9.70;99.90
64620;DHT22;51029;51.058;13.826;2022-10-31T07:37:10;9.70;99.90
64620;DHT22;51029;51.058;13.826;2022-10-31T07:39:36;9.70;99.90
64620;DHT22;51029;51.058;13.826;2022-10-31T07:42:01;9.70;99.90
64620;DHT22;51029;51.058;13.826;2022-10-31T07:44:27;9.70;99.90
64620;DHT22;51029;51.058;13.826;2022-10-31T07:46:52;9.70;99.90
64620;DHT22;51029;51.058;13.826;2022-10-31T07:49:18;9.70;99.90
64620;DHT22;51029;51.058;13.826;2022-10-31T07:51:43;9.70;99.90
64620;DHT22;51029;51.058;13.826;2022-10-31T07:54:09;9.80;99.90
64620;DHT22;51029;51.058;13.826;2022-10-31T07:56:34;9.90;99.90
64620;DHT22;51029;51.058;13.826;2022-10-31T07:59:00;9.90;99.90
64620;DHT22;51029;51.058;13.826;2022-10-31T08:01:25;10.00;99.90
64620;DHT22;51029;51.058;13.826;2022-10-31T08:03:51;10.10;99.90
64620;DHT22;51029;51.058;13.826;2022-10-31T08:06:16;10.10;99.90
64620;DHT22;51029;51.058;13.826;2022-10-31T08:08:42;10.30;99.90
64620;DHT22;51029;51.058;13.826;2022-10-31T08:11:07;10.30;99.90
64620;DHT22;51029;51.058;13.826;2022-10-31T08:13:33;10.50;99.90
64620;DHT22;51029;51.058;13.826;2022-10-31T08:15:58;11.00;99.90
64620;DHT22;51029;51.058;13.826;2022-10-31T08:18:29;11.40;99.90
64620;DHT22;51029;51.058;13.826;2022-10-31T08:20:55;12.00;99.90
64620;DHT22;51029;51.058;13.826;2022-10-31T08:23:21;12.50;99.90
64620;DHT22;51029;51.058;13.826;2022-10-31T08:25:46;12.90;99.90
64620;DHT22;51029;51.058;13.826;2022-10-31T08:28:15;13.40;99.90
64620;DHT22;51029;51.058;13.826;2022-10-31T08:30:41;13.80;99.90
64620;DHT22;51029;51.058;13.826;2022-10-31T08:33:15;14.00;99.90
64620;DHT22;51029;51.058;13.826;2022-10-31T08:35:41;14.40;99.90
64620;DHT22;51029;51.058;13.826;2022-10-31T08:38:09;14.70;99.90
64620;DHT22;51029;51.058;13.826;2022-10-31T08:40:35;15.20;99.90
64620;DHT22;51029;51.058;13.826;2022-10-31T08:43:03;15.60;99.90
64620;DHT22;51029;51.058;13.826;2022-10-31T08:45:30;16.00;99.90
64620;DHT22;51029;51.058;13.826;2022-10-31T08:47:57;16.30;99.90
64620;DHT22;51029;51.058;13.826;2022-10-31T08:50:23;16.60;99.90
64620;DHT22;51029;51.058;13.826;2022-10-31T08:52:49;16.80;99.90
64620;DHT22;51029;51.058;13.826;2022-10-31T08:55:15;17.10;99.90
64620;DHT22;51029;51.058;13.826;2022-10-31T08:57:41;17.40;99.90
64620;DHT22;51029;51.058;13.826;2022-10-31T09:00:07;17.70;99.90
64620;DHT22;51029;51.058;13.826;2022-10-31T09:02:32;17.90;99.90
64620;DHT22;51029;51.058;13.826;2022-10-31T09:04:58;18.40;99.90
64620;DHT22;51029;51.058;13.826;2022-10-31T09:07:24;18.70;99.90
64620;DHT22;51029;51.058;13.826;2022-10-31T09:09:49;19.10;98.20
64620;DHT22;51029;51.058;13.826;2022-10-31T09:12:15;19.40;97.40
64620;DHT22;51029;51.058;13.826;2022-10-31T09:14:40;19.60;96.40
64620;DHT22;51029;51.058;13.826;2022-10-31T09:17:06;19.50;96.60
64620;DHT22;51029;51.058;13.826;2022-10-31T09:19:31;19.70;97.30
64620;DHT22;51029;51.058;13.826;2022-10-31T09:21:57;19.70;96.60
64620;DHT22;51029;51.058;13.826;2022-10-31T09:24:22;19.80;96.50
64620;DHT22;51029;51.058;13.826;2022-10-31T09:26:48;19.90;96.00
64620;DHT22;51029;51.058;13.826;2022-10-31T09:29:13;20.10;95.60
64620;DHT22;51029;51.058;13.826;2022-10-31T09:31:39;20.40;95.70
64620;DHT22;51029;51.058;13.826;2022-10-31T09:34:05;20.90;94.00
64620;DHT22;51029;51.058;13.826;2022-10-31T09:36:30;21.40;93.20
64620;DHT22;51029;51.058;13.826;2022-10-31T09:38:56;22.10;92.60
64620;DHT22;51029;51.058;13.826;2022-10-31T09:41:36;22.80;90.70
64620;DHT22;51029;51.058;13.826;2022-10-31T09:44:18;23.20;88.10
64620;DHT22;51029;51.058;13.826;2022-10-31T09:46:59;23.20;86.40
64620;DHT22;51029;51.058;13.826;2022-10-31T09:49:36;23.30;86.40
64620;DHT22;51029;51.058;13.826;2022-10-31T09:52:26;23.80;83.80
64620;DHT22;51029;51.058;13.826;2022-10-31T09:55:05;24.70;80.50
64620;DHT22;51029;51.058;13.826;2022-10-31T09:57:35;25.80;77.80
64620;DHT22;51029;51.058;13.826;2022-10-31T10:00:04;26.80;73.90
64620;DHT22;51029;51.058;13.826;2022-10-31T10:05:17;28.80;65.00
64620;DHT22;51029;51.058;13.826;2022-10-31T10:13:22;29.80;57.80
64620;DHT22;51029;51.058;13.826;2022-10-31T10:27:19;32.80;50.60
64620;DHT22;51029;51.058;13.826;2022-10-31T10:29:57;33.10;49.10
64620;DHT22;51029;51.058;13.826;2022-10-31T10:32:27;33.70;45.20
64620;DHT22;51029;51.058;13.826;2022-10-31T10:37:39;34.10;43.90
64620;DHT22;51029;51.058;13.826;2022-10-31T10:43:07;34.20;41.80
64620;DHT22;51029;51.058;13.826;2022-10-31T10:48:55;35.60;39.00
64620;DHT22;51029;51.058;13.826;2022-10-31T10:51:32;35.00;39.70
64620;DHT22;51029;51.058;13.826;2022-10-31T10:56:59;34.80;40.00
64620;DHT22;51029;51.058;13.826;2022-10-31T10:59:26;35.00;38.80
64620;DHT22;51029;51.058;13.826;2022-10-31T11:01:52;35.30;38.50
64620;DHT22;51029;51.058;13.826;2022-10-31T11:09:28;37.90;36.00
64620;DHT22;51029;51.058;13.826;2022-10-31T11:11:54;38.80;33.80
64620;DHT22;51029;51.058;13.826;2022-10-31T11:14:20;39.40;33.30
64620;DHT22;51029;51.058;13.826;2022-10-31T11:16:50;39.80;33.60
64620;DHT22;51029;51.058;13.826;2022-10-31T11:19:26;40.30;33.20
64620;DHT22;51029;51.058;13.826;2022-10-31T11:21:53;40.10;33.30
64620;DHT22;51029;51.058;13.826;2022-10-31T11:24:22;40.50;32.80
64620;DHT22;51029;51.058;13.826;2022-10-31T11:26:51;40.80;32.30
64620;DHT22;51029;51.058;13.826;2022-10-31T11:31:48;40.40;32.90
64620;DHT22;51029;51.058;13.826;2022-10-31T11:37:03;40.60;32.50
64620;DHT22;51029;51.058;13.826;2022-10-31T11:39:30;41.20;32.20
64620;DHT22;51029;51.058;13.826;2022-10-31T11:41:59;41.60;31.20
64620;DHT22;51029;51.058;13.826;2022-10-31T11:44:28;42.20;29.90
64620;DHT22;51029;51.058;13.826;2022-10-31T11:46:58;42.10;31.30
64620;DHT22;51029;51.058;13.826;2022-10-31T11:49:41;42.90;29.90
64620;DHT22;51029;51.058;13.826;2022-10-31T11:52:14;42.40;30.50
64620;DHT22;51029;51.058;13.826;2022-10-31T11:55:02;42.30;30.30
64620;DHT22;51029;51.058;13.826;2022-10-31T11:57:44;42.50;30.00
64620;DHT22;51029;51.058;13.826;2022-10-31T12:00:24;42.80;29.60
64620;DHT22;51029;51.058;13.826;2022-10-31T12:02:51;42.70;29.40
64620;DHT22;51029;51.058;13.826;2022-10-31T12:05:29;42.70;29.10
64620;DHT22;51029;51.058;13.826;2022-10-31T12:07:58;42.10;29.80
64620;DHT22;51029;51.058;13.826;2022-10-31T12:10:30;41.50;30.00
64620;DHT22;51029;51.058;13.826;2022-10-31T12:15:36;41.70;29.10
64620;DHT22;51029;51.058;13.826;2022-10-31T12:26:51;42.50;28.70
64620;DHT22;51029;51.058;13.826;2022-10-31T12:37:47;41.30;30.70
64620;DHT22;51029;51.058;13.826;2022-10-31T12:45:55;43.70;28.70
64620;DHT22;51029;51.058;13.826;2022-10-31T12:59:57;42.80;28.90
64620;DHT22;51029;51.058;13.826;2022-10-31T13:05:40;42.30;29.20
64620;DHT22;51029;51.058;13.826;2022-10-31T13:08:11;40.70;30.50
64620;DHT22;51029;51.058;13.826;2022-10-31T13:16:19;38.70;33.40
64620;DHT22;51029;51.058;13.826;2022-10-31T13:19:01;38.60;33.50
64620;DHT22;51029;51.058;13.826;2022-10-31T13:22:05;38.90;33.10
64620;DHT22;51029;51.058;13.826;2022-10-31T13:27:21;39.70;32.10
64620;DHT22;51029;51.058;13.826;2022-10-31T13:30:01;39.50;32.80
64620;DHT22;51029;51.058;13.826;2022-10-31T13:32:37;39.50;32.70
64620;DHT22;51029;51.058;13.826;2022-10-31T13:35:13;38.70;32.70
64620;DHT22;51029;51.058;13.826;2022-10-31T13:37:48;38.20;33.80
64620;DHT22;51029;51.058;13.826;2022-10-31T13:40:30;38.00;34.60
64620;DHT22;51029;51.058;13.826;2022-10-31T13:45:32;37.10;34.40
64620;DHT22;51029;51.058;13.826;2022-10-31T13:50:54;33.90;38.60
64620;DHT22;51029;51.058;13.826;2022-10-31T13:53:22;32.60;41.00
64620;DHT22;51029;51.058;13.826;2022-10-31T13:56:25;30.60;44.50
64620;DHT22;51029;51.058;13.826;2022-10-31T13:59:05;29.60;47.90
64620;DHT22;51029;51.058;13.826;2022-10-31T14:04:25;29.90;47.80
64620;DHT22;51029;51.058;13.826;2022-10-31T14:07:05;30.10;47.40
64620;DHT22;51029;51.058;13.826;2022-10-31T14:12:12;28.90;50.40
64620;DHT22;51029;51.058;13.826;2022-10-31T14:14:45;28.00;52.40
64620;DHT22;51029;51.058;13.826;2022-10-31T14:17:22;28.50;53.00
64620;DHT22;51029;51.058;13.826;2022-10-31T14:20:25;28.50;52.20
64620;DHT22;51029;51.058;13.826;2022-10-31T14:22:51;27.00;54.80
64620;DHT22;51029;51.058;13.826;2022-10-31T14:25:33;25.80;58.20
64620;DHT22;51029;51.058;13.826;2022-10-31T14:28:20;24.80;62.30
64620;DHT22;51029;51.058;13.826;2022-10-31T14:30:57;24.10;65.00
64620;DHT22;51029;51.058;13.826;2022-10-31T14:33:25;23.40;67.90
64620;DHT22;51029;51.058;13.826;2022-10-31T14:36:08;22.80;70.30
64620;DHT22;51029;51.058;13.826;2022-10-31T14:41:21;22.00;75.80
64620;DHT22;51029;51.058;13.826;2022-10-31T14:46:54;21.40;81.20
64620;DHT22;51029;51.058;13.826;2022-10-31T14:49:57;21.10;83.30
64620;DHT22;51029;51.058;13.826;2022-10-31T14:52:17;20.90;86.50
64620;DHT22;51029;51.058;13.826;2022-10-31T14:54:47;20.60;89.70
64620;DHT22;51029;51.058;13.826;2022-10-31T14:57:19;20.30;91.10
64620;DHT22;51029;51.058;13.826;2022-10-31T14:59:50;20.00;92.60
64620;DHT22;51029;51.058;13.826;2022-10-31T15:02:25;19.70;93.80
64620;DHT22;51029;51.058;13.826;2022-10-31T15:04:52;19.60;94.80
64620;DHT22;51029;51.058;13.826;2022-10-31T15:07:24;19.30;95.50
64620;DHT22;51029;51.058;13.826;2022-10-31T15:10:39;19.20;96.50
64620;DHT22;51029;51.058;13.826;2022-10-31T15:12:45;19.10;96.70
64620;DHT22;51029;51.058;13.826;2022-10-31T15:15:25;19.00;97.30
64620;DHT22;51029;51.058;13.826;2022-10-31T15:17:56;18.90;97.60
64620;DHT22;51029;51.058;13.826;2022-10-31T15:20:25;18.80;97.80
64620;DHT22;51029;51.058;13.826;2022-10-31T15:22:52;18.70;98.20
64620;DHT22;51029;51.058;13.826;2022-10-31T15:25:21;18.50;98.70
64620;DHT22;51029;51.058;13.826;2022-10-31T15:27:49;18.40;99.20
64620;DHT22;51029;51.058;13.826;2022-10-31T15:30:26;18.20;99.30
64620;DHT22;51029;51.058;13.826;2022-10-31T15:32:51;18.10;99.80
64620;DHT22;51029;51.058;13.826;2022-10-31T15:35:24;18.00;99.90
64620;DHT22;51029;51.058;13.826;2022-10-31T15:37:51;17.90;99.90
64620;DHT22;51029;51.058;13.826;2022-10-31T15:40:19;17.70;99.90
64620;DHT22;51029;51.058;13.826;2022-10-31T15:42:51;17.50;99.90
64620;DHT22;51029;51.058;13.826;2022-10-31T15:45:21;17.40;99.90
64620;DHT22;51029;51.058;13.826;2022-10-31T15:47:54;17.20;99.90
64620;DHT22;51029;51.058;13.826;2022-10-31T15:50:38;17.10;99.90
64620;DHT22;51029;51.058;13.826;2022-10-31T15:53:13;17.00;99.90
64620;DHT22;51029;51.058;13.826;2022-10-31T15:55:47;16.80;99.90
64620;DHT22;51029;51.058;13.826;2022-10-31T15:58:14;16.70;99.90
64620;DHT22;51029;51.058;13.826;2022-10-31T16:00:41;16.60;99.90
64620;DHT22;51029;51.058;13.826;2022-10-31T16:05:50;16.40;99.90
64620;DHT22;51029;51.058;13.826;2022-10-31T16:13:34;16.10;99.90
64620;DHT22;51029;51.058;13.826;2022-10-31T16:16:10;16.10;99.90
64620;DHT22;51029;51.058;13.826;2022-10-31T16:18:37;16.00;99.90
64620;DHT22;51029;51.058;13.826;2022-10-31T16:21:04;15.90;99.90
64620;DHT22;51029;51.058;13.826;2022-10-31T16:23:30;15.90;99.90
64620;DHT22;51029;51.058;13.826;2022-10-31T16:25:59;15.80;99.90
64620;DHT22;51029;51.058;13.826;2022-10-31T16:28:28;15.70;99.90
64620;DHT22;51029;51.058;13.826;2022-10-31T16:30:56;15.70;99.90
64620;DHT22;51029;51.058;13.826;2022-10-31T16:33:34;15.60;99.90
64620;DHT22;51029;51.058;13.826;2022-10-31T16:38:53;15.50;99.90
64620;DHT22;51029;51.058;13.826;2022-10-31T16:41:20;15.40;99.90
64620;DHT22;51029;51.058;13.826;2022-10-31T16:43:45;15.40;99.90
64620;DHT22;51029;51.058;13.826;2022-10-31T16:46:16;15.30;99.90
64620;DHT22;51029;51.058;13.826;2022-10-31T16:48:43;15.30;99.90
64620;DHT22;51029;51.058;13.826;2022-10-31T16:51:09;15.30;99.90
64620;DHT22;51029;51.058;13.826;2022-10-31T16:53:34;15.20;99.90
64620;DHT22;51029;51.058;13.826;2022-10-31T16:56:02;15.10;99.90
64620;DHT22;51029;51.058;13.826;2022-10-31T16:58:29;15.00;99.90
64620;DHT22;51029;51.058;13.826;2022-10-31T17:00:57;15.00;99.90
64620;DHT22;51029;51.058;13.826;2022-10-31T17:03:23;15.00;99.90
64620;DHT22;51029;51.058;13.826;2022-10-31T17:05:48;14.90;99.90
64620;DHT22;51029;51.058;13.826;2022-10-31T17:08:15;14.90;99.90
64620;DHT22;51029;51.058;13.826;2022-10-31T17:10:42;14.90;99.90
64620;DHT22;51029;51.058;13.826;2022-10-31T17:13:21;14.90;99.90
64620;DHT22;51029;51.058;13.826;2022-10-31T17:15:50;14.80;99.90
64620;DHT22;51029;51.058;13.826;2022-10-31T17:18:17;14.80;99.90
64620;DHT22;51029;51.058;13.826;2022-10-31T17:20:43;14.70;99.90
64620;DHT22;51029;51.058;13.826;2022-10-31T17:23:10;14.70;99.90
64620;DHT22;51029;51.058;13.826;2022-10-31T17:25:36;14.70;99.90
64620;DHT22;51029;51.058;13.826;2022-10-31T17:28:02;14.60;99.90
64620;DHT22;51029;51.058;13.826;2022-10-31T17:30:27;14.60;99.90
64620;DHT22;51029;51.058;13.826;2022-10-31T17:32:53;14.60;99.90
64620;DHT22;51029;51.058;13.826;2022-10-31T17:35:20;14.50;99.90
64620;DHT22;51029;51.058;13.826;2022-10-31T17:37:46;14.40;99.90
64620;DHT22;51029;51.058;13.826;2022-10-31T17:40:15;14.40;99.90
64620;DHT22;51029;51.058;13.826;2022-10-31T17:42:41;14.40;99.90
64620;DHT22;51029;51.058;13.826;2022-10-31T17:45:08;14.40;99.90
64620;DHT22;51029;51.058;13.826;2022-10-31T17:47:34;14.40;99.90
64620;DHT22;51029;51.058;13.826;2022-10-31T17:50:00;14.40;99.90
64620;DHT22;51029;51.058;13.826;2022-10-31T17:52:25;14.40;99.90
64620;DHT22;51029;51.058;13.826;2022-10-31T17:54:51;14.40;99.90
64620;DHT22;51029;51.058;13.826;2022-10-31T17:57:16;14.40;99.90